createdAt,value
2022-10-23T00:04:47.595Z,99145.19
2022-10-23T00:09:50.991Z,99147.75
2022-10-23T00:14:55.809Z,99133.13
2022-10-23T00:19:59.177Z,99133.06
2022-10-23T00:25:02.687Z,99102.84
2022-10-23T00:30:09.194Z,99112.34
2022-10-23T00:35:12.742Z,99107.22
2022-10-23T00:40:16.259Z,99102.94
2022-10-23T00:45:25.720Z,99090.97
2022-10-23T00:50:31.312Z,99081.41
2022-10-23T00:55:38.401Z,99090.09
2022-10-23T01:00:49.647Z,99084.75
2022-10-23T01:05:58.360Z,99085.72
2022-10-23T01:11:11.848Z,99072.81
2022-10-23T01:16:22.324Z,99070.16
2022-10-23T01:21:34.106Z,99066.72
2022-10-23T01:26:49.046Z,99065.00
2022-10-23T01:31:59.669Z,99058.75
2022-10-23T01:37:05.369Z,99055.06
2022-10-23T01:42:12.856Z,99048.16
2022-10-23T01:52:25.308Z,99041.59
2022-10-23T01:57:32.434Z,99036.31
2022-10-23T02:02:39.081Z,99030.94
2022-10-23T02:07:42.794Z,99015.88
2022-10-23T02:12:56.139Z,99021.84
2022-10-23T02:18:36.130Z,99031.19
2022-10-23T02:23:45.728Z,98996.38
2022-10-23T02:28:53.275Z,99031.78
2022-10-23T02:33:58.422Z,99029.13
2022-10-23T02:39:01.788Z,99022.00
2022-10-23T02:44:20.140Z,99022.91
2022-10-23T02:49:33.161Z,99011.47
2022-10-23T02:54:52.294Z,99009.72
2022-10-23T03:00:03.572Z,99002.63
2022-10-23T03:05:13.730Z,99002.63
2022-10-23T03:10:17.506Z,98993.88
2022-10-23T03:15:20.844Z,98987.78
2022-10-23T03:20:25.825Z,98987.06
2022-10-23T03:25:29.907Z,98970.59
2022-10-23T03:30:33.265Z,98971.28
2022-10-23T03:35:38.077Z,98968.66
2022-10-23T03:40:41.263Z,98964.25
2022-10-23T03:45:44.680Z,98966.53
2022-10-23T03:50:49.420Z,98957.91
2022-10-23T03:55:52.732Z,98968.13
2022-10-23T04:00:56.368Z,98972.59
2022-10-23T04:06:01.865Z,98964.81
2022-10-23T04:11:05.367Z,98963.88
2022-10-23T04:16:09.010Z,98961.31
2022-10-23T04:21:13.794Z,98952.78
2022-10-23T04:26:17.330Z,98948.31
2022-10-23T04:31:20.806Z,98963.91
2022-10-23T04:36:26.108Z,98963.19
2022-10-23T04:41:29.580Z,98952.97
2022-10-23T04:46:32.971Z,98948.03
2022-10-23T04:51:38.650Z,98942.13
2022-10-23T04:56:42.016Z,98947.25
2022-10-23T05:01:45.839Z,98941.63
2022-10-23T05:06:50.695Z,98935.13
2022-10-23T05:11:53.774Z,98933.66
2022-10-23T05:17:04.109Z,98932.06
2022-10-23T05:22:10.042Z,98940.94
2022-10-23T05:27:13.595Z,98936.13
2022-10-23T05:32:18.063Z,98930.06
2022-10-23T05:37:23.344Z,98940.63
2022-10-23T05:42:26.814Z,98930.41
2022-10-23T05:47:31.640Z,98905.66
2022-10-23T05:52:36.186Z,98912.59
2022-10-23T05:57:39.691Z,98911.91
2022-10-23T06:02:43.271Z,98911.22
2022-10-23T06:07:48.153Z,98901.19
2022-10-23T06:12:52.186Z,98898.94
2022-10-23T06:17:55.726Z,98895.53
2022-10-23T06:23:00.599Z,98881.88
2022-10-23T06:28:03.703Z,98883.44
2022-10-23T06:33:06.971Z,98868.91
2022-10-23T06:38:11.810Z,98869.09
2022-10-23T06:43:14.907Z,98863.34
2022-10-23T06:48:18.350Z,98857.25
2022-10-23T06:53:24.911Z,98848.69
2022-10-23T06:58:28.693Z,98846.28
2022-10-23T07:03:32.064Z,98847.97
2022-10-23T07:08:37.880Z,98844.50
2022-10-23T07:13:42.729Z,98843.59
2022-10-23T07:18:46.347Z,98832.56
2022-10-23T07:23:51.095Z,98827.41
2022-10-23T07:28:55.693Z,98807.63
2022-10-23T07:33:59.201Z,98824.88
2022-10-23T07:39:05.322Z,98818.00
2022-10-23T07:44:08.872Z,98816.28
2022-10-23T07:49:13.138Z,98803.38
2022-10-23T07:54:17.871Z,98805.06
2022-10-23T07:59:21.293Z,98799.91
2022-10-23T08:04:25.037Z,98773.19
2022-10-23T08:09:29.846Z,98801.66
2022-10-23T08:14:32.994Z,98797.31
2022-10-23T08:19:37.088Z,98795.59
2022-10-23T08:24:41.861Z,98799.06
2022-10-23T08:29:44.958Z,98784.38
2022-10-23T08:34:48.648Z,98793.00
2022-10-23T08:39:54.960Z,98795.59
2022-10-23T08:45:06.897Z,98779.22
2022-10-23T08:50:21.117Z,98784.38
2022-10-23T08:55:31.422Z,98785.25
2022-10-23T09:00:35.842Z,98775.72
2022-10-23T09:05:54.425Z,98776.59
2022-10-23T09:11:04.798Z,98757.69
2022-10-23T09:16:16.132Z,98758.53
2022-10-23T09:21:21.020Z,98757.66
2022-10-23T09:26:25.542Z,98747.31
2022-10-23T09:31:29.049Z,98740.44
2022-10-23T09:36:34.525Z,98734.38
2022-10-23T09:41:41.643Z,98734.38
2022-10-23T09:46:47.551Z,98718.00
2022-10-23T09:52:06.567Z,98736.97
2022-10-23T09:57:24.123Z,98725.78
2022-10-23T10:02:29.787Z,98711.09
2022-10-23T10:07:35.959Z,98704.19
2022-10-23T10:12:51.041Z,98711.94
2022-10-23T10:18:04.870Z,98707.66
2022-10-23T10:23:18.508Z,98700.78
2022-10-23T10:28:39.897Z,98696.47
2022-10-23T10:33:54.682Z,98690.41
2022-10-23T10:39:01.827Z,98694.72
2022-10-23T10:44:20.898Z,98679.22
2022-10-23T10:49:30.542Z,98658.56
2022-10-23T10:54:45.102Z,98668.88
2022-10-23T10:59:57.437Z,98644.78
2022-10-23T11:05:13.388Z,98651.69
2022-10-23T11:10:19.189Z,98649.13
2022-10-23T11:15:28.653Z,98640.50
2022-10-23T11:20:46.233Z,98638.81
2022-10-23T11:26:02.116Z,98636.19
2022-10-23T11:31:18.508Z,98630.19
2022-10-23T11:36:47.201Z,98624.16
2022-10-23T11:41:54.774Z,98615.53
2022-10-23T11:47:08.615Z,98604.34
2022-10-23T11:52:26.450Z,98617.28
2022-10-23T12:02:38.640Z,98606.94
2022-10-23T12:07:43.500Z,98601.78
2022-10-23T12:12:57.947Z,98600.03
2022-10-23T12:18:16.082Z,98599.19
2022-10-23T12:23:48.067Z,98605.19
2022-10-23T12:29:00.599Z,98601.75
2022-10-23T12:34:19.936Z,98594.00
2022-10-23T12:39:27.382Z,98591.44
2022-10-23T12:44:32.265Z,98590.56
2022-10-23T12:49:36.838Z,98593.16
2022-10-23T12:54:41.660Z,98581.09
2022-10-23T12:59:46.056Z,98568.19
2022-10-23T13:04:52.230Z,98568.19
2022-10-23T13:09:56.833Z,98563.88
2022-10-23T13:15:03.698Z,98558.69
2022-10-23T13:20:22.318Z,98559.59
2022-10-23T13:25:28.163Z,98557.00
2022-10-23T13:30:33.760Z,98559.59
2022-10-23T13:35:40.022Z,98554.41
2022-10-23T13:40:43.396Z,98545.81
2022-10-23T13:45:47.151Z,98537.19
2022-10-23T13:50:52.070Z,98538.09
2022-10-23T13:55:58.585Z,98538.94
2022-10-23T14:01:04.545Z,98532.91
2022-10-23T14:06:10.228Z,98534.63
2022-10-23T14:16:21.880Z,98529.47
2022-10-23T14:21:27.057Z,98521.72
2022-10-23T14:26:30.639Z,98519.13
2022-10-23T14:31:34.040Z,98520.84
2022-10-23T14:36:49.775Z,98513.94
2022-10-23T14:41:53.942Z,98509.63
2022-10-23T14:46:57.297Z,98507.03
2022-10-23T14:52:02.274Z,98497.56
2022-10-23T14:57:06.262Z,98499.28
2022-10-23T15:02:11.612Z,98490.69
2022-10-23T15:07:16.397Z,98491.56
2022-10-23T15:12:19.873Z,98491.56
2022-10-23T15:17:23.531Z,98489.81
2022-10-23T15:22:28.695Z,98482.88
2022-10-23T15:27:32.083Z,98477.72
2022-10-23T15:32:35.813Z,98482.88
2022-10-23T15:37:40.793Z,98482.84
2022-10-23T15:42:44.616Z,98482.00
2022-10-23T15:47:48.235Z,98480.28
2022-10-23T15:52:53.553Z,98484.59
2022-10-23T15:58:02.042Z,98479.47
2022-10-23T16:03:05.815Z,98469.13
2022-10-23T16:08:10.752Z,98478.56
2022-10-23T16:13:14.167Z,98484.56
2022-10-23T16:18:18.864Z,98477.66
2022-10-23T16:23:24.202Z,98467.25
2022-10-23T16:28:28.017Z,98468.13
2022-10-23T16:33:31.431Z,98459.53
2022-10-23T16:38:37.238Z,98445.69
2022-10-23T16:43:40.767Z,98439.72
2022-10-23T16:48:44.412Z,98428.50
2022-10-23T16:53:50.324Z,98430.19
2022-10-23T16:58:54.057Z,98426.72
2022-10-23T17:03:58.869Z,98425.84
2022-10-23T17:09:04.951Z,98418.03
2022-10-23T17:14:11.335Z,98401.63
2022-10-23T17:19:40.028Z,98407.66
2022-10-23T17:24:47.390Z,98409.34
2022-10-23T17:29:53.588Z,98406.81
2022-10-23T17:34:57.116Z,98404.25
2022-10-23T17:40:03.643Z,98388.72
2022-10-23T17:45:08.137Z,98388.72
2022-10-23T17:50:13.964Z,98383.53
2022-10-23T17:55:19.332Z,98380.97
2022-10-23T18:00:23.005Z,98380.13
2022-10-23T18:05:26.455Z,98375.81
2022-10-23T18:10:31.318Z,98374.81
2022-10-23T18:15:35.423Z,98373.13
2022-10-23T18:20:42.733Z,98362.81
2022-10-23T18:25:47.608Z,98358.47
2022-10-23T18:30:56.164Z,98359.41
2022-10-23T18:36:00.532Z,98356.94
2022-10-23T18:41:05.550Z,98356.84
2022-10-23T18:46:09.446Z,98353.31
2022-10-23T18:51:17.384Z,98352.38
2022-10-23T18:56:26.474Z,98357.50
2022-10-23T19:01:31.330Z,98346.34
2022-10-23T19:06:37.585Z,98349.84
2022-10-23T19:11:43.764Z,98340.38
2022-10-23T19:16:57.882Z,98349.75
2022-10-23T19:22:03.569Z,98349.72
2022-10-23T19:27:09.166Z,98333.31
2022-10-23T19:32:13.165Z,98344.63
2022-10-23T19:37:16.771Z,98342.84
2022-10-23T19:42:21.729Z,98342.75
2022-10-23T19:47:25.078Z,98340.25
2022-10-23T19:52:28.688Z,98337.69
2022-10-23T19:57:35.113Z,98329.81
2022-10-23T20:02:38.543Z,98325.59
2022-10-23T20:07:42.775Z,98322.13
2022-10-23T20:12:56.878Z,98322.94
2022-10-23T20:18:07.135Z,98307.41
2022-10-23T20:23:10.891Z,98318.56
2022-10-23T20:28:16.053Z,98311.63
2022-10-23T20:33:19.449Z,98302.28
2022-10-23T20:38:23.401Z,98303.06
2022-10-23T20:43:28.186Z,98295.34
2022-10-23T20:48:35.297Z,98307.38
2022-10-23T20:53:39.872Z,98290.13
2022-10-23T20:58:45.104Z,98295.28
2022-10-23T21:03:52.117Z,98290.09
2022-10-23T21:08:57.483Z,98290.16
2022-10-23T21:14:04.635Z,98291.84
2022-10-23T21:19:14.453Z,98290.13
2022-10-23T21:24:18.688Z,98285.81
2022-10-23T21:29:23.449Z,98284.97
2022-10-23T21:34:27.570Z,98299.63
2022-10-23T21:39:31.702Z,98286.78
2022-10-23T21:44:36.639Z,98297.03
2022-10-23T21:49:42.435Z,98296.28
2022-10-23T21:54:45.777Z,98293.72
2022-10-23T21:59:50.831Z,98303.13
2022-10-23T22:04:54.462Z,98302.31
2022-10-23T22:09:57.835Z,98304.84
2022-10-23T22:15:02.649Z,98296.22
2022-10-23T22:20:07.338Z,98293.66
2022-10-23T22:25:11.351Z,98295.41
2022-10-23T22:30:17.707Z,98284.22
2022-10-23T22:35:20.873Z,98279.00
2022-10-23T22:40:24.195Z,98286.06
2022-10-23T22:45:29.007Z,98284.34
2022-10-23T22:50:32.147Z,98291.22
2022-10-23T22:55:36.775Z,98282.72
2022-10-23T23:00:43.646Z,98281.84
2022-10-23T23:05:49.072Z,98293.03
2022-10-23T23:10:56.304Z,98290.44
2022-10-23T23:16:01.210Z,98285.28
2022-10-23T23:21:06.327Z,98282.81
2022-10-23T23:26:10.070Z,98299.19
2022-10-23T23:31:19.210Z,98298.25
2022-10-23T23:36:24.328Z,98299.25
2022-10-23T23:41:29.765Z,98294.13
2022-10-23T23:46:34.657Z,98296.75
2022-10-23T23:51:38.010Z,98297.53
2022-10-23T23:56:41.481Z,98301.06
